Time;durP1;ratioP1;P1;durP2;ratioP2;P2;SDS_P1;SDS_P2;PMS_P1;PMS_P2;Temp;Humidity;BMP_temperature;BMP_pressure;BME280_temperature;BME280_humidity;BME280_pressure;Samples;Min_cycle;Max_cycle;Signal;HPM_P1;HPM_P2
2022/10/18 00:00:30;;;;;;;70.93;32.58;;;13.70;99.90;;;;;;5012073;28;20042;-70
2022/10/18 00:02:55;;;;;;;51.58;29.23;;;13.80;99.90;;;;;;5011592;28;20096;-70
2022/10/18 00:05:21;;;;;;;54.65;29.77;;;13.70;99.90;;;;;;5011900;28;20381;-69
2022/10/18 00:07:46;;;;;;;45.65;26.15;;;13.70;99.90;;;;;;5011825;28;20034;-69
2022/10/18 00:10:12;;;;;;;41.72;25.63;;;13.70;99.90;;;;;;5011828;28;20038;-69
2022/10/18 00:12:37;;;;;;;53.65;25.88;;;13.80;99.90;;;;;;5010059;28;20053;-69
2022/10/18 00:15:05;;;;;;;49.13;27.80;;;13.80;99.90;;;;;;5010474;28;20183;-69
2022/10/18 00:17:32;;;;;;;48.17;25.23;;;13.80;99.90;;;;;;5010500;28;20204;-70
2022/10/18 00:19:58;;;;;;;46.55;25.00;;;13.70;99.90;;;;;;5011631;28;20504;-70
2022/10/18 00:22:24;;;;;;;41.53;24.75;;;13.80;99.90;;;;;;5010044;28;20045;-70
2022/10/18 00:24:50;;;;;;;39.30;23.67;;;13.80;99.90;;;;;;5011731;28;20046;-69
2022/10/18 00:27:16;;;;;;;37.70;24.08;;;13.60;99.90;;;;;;5011547;28;20042;-69
2022/10/18 00:29:42;;;;;;;41.63;24.15;;;13.70;99.90;;;;;;5010366;28;20050;-69
2022/10/18 00:32:07;;;;;;;45.58;24.65;;;13.60;99.90;;;;;;5011650;28;20129;-69
2022/10/18 00:34:33;;;;;;;38.92;22.95;;;13.50;99.90;;;;;;5011431;28;20066;-69
2022/10/18 00:36:58;;;;;;;35.78;21.80;;;13.70;99.90;;;;;;5011494;28;20053;-69
2022/10/18 00:39:24;;;;;;;38.85;22.58;;;13.60;99.90;;;;;;5011423;28;20050;-69
2022/10/18 00:41:50;;;;;;;33.67;21.25;;;13.70;99.90;;;;;;5011270;28;20042;-69
2022/10/18 00:44:15;;;;;;;38.13;22.58;;;13.50;99.90;;;;;;5011233;28;20566;-70
2022/10/18 00:46:44;;;;;;;33.95;20.90;;;13.50;99.90;;;;;;5011599;28;20042;-69
2022/10/18 00:49:11;;;;;;;31.27;21.40;;;13.60;99.90;;;;;;5011517;28;20049;-69
2022/10/18 00:52:08;;;;;;;33.88;20.83;;;13.50;99.90;;;;;;5010228;28;20053;-69
2022/10/18 00:54:36;;;;;;;31.58;20.63;;;13.60;99.90;;;;;;5011464;28;20052;-69
2022/10/18 00:57:03;;;;;;;33.08;21.00;;;13.40;99.90;;;;;;5011347;28;20404;-70
2022/10/18 00:59:29;;;;;;;30.27;19.55;;;13.40;99.90;;;;;;5014245;28;20042;-70
2022/10/18 01:01:55;;;;;;;41.42;21.10;;;13.40;99.90;;;;;;5014969;28;20069;-69
2022/10/18 01:04:21;;;;;;;32.85;20.67;;;13.60;99.90;;;;;;5014584;28;20499;-69
2022/10/18 01:07:09;;;;;;;35.50;21.92;;;13.40;99.90;;;;;;5014767;28;20044;-69
2022/10/18 01:09:44;;;;;;;31.75;19.70;;;13.40;99.90;;;;;;5013815;28;20100;-69
2022/10/18 01:12:31;;;;;;;41.13;23.50;;;13.40;99.90;;;;;;5014627;28;20411;-69
2022/10/18 01:15:12;;;;;;;34.35;21.17;;;13.50;99.90;;;;;;5014679;28;20399;-70
2022/10/18 01:17:43;;;;;;;40.17;22.33;;;13.30;99.90;;;;;;5014622;28;20049;-69
2022/10/18 01:20:29;;;;;;;36.10;21.05;;;13.30;99.90;;;;;;5013345;28;20053;-69
2022/10/18 01:23:01;;;;;;;34.75;21.33;;;13.30;99.90;;;;;;5013481;28;20049;-70
2022/10/18 01:25:49;;;;;;;35.30;20.45;;;13.50;99.90;;;;;;5014554;28;20037;-70
2022/10/18 01:28:42;;;;;;;34.88;20.90;;;13.30;99.90;;;;;;5014702;28;20087;-70
2022/10/18 01:31:20;;;;;;;44.63;23.30;;;13.40;99.90;;;;;;5014391;28;20282;-70
2022/10/18 01:33:50;;;;;;;37.42;20.77;;;13.40;99.90;;;;;;5012768;28;20296;-69
2022/10/18 01:36:36;;;;;;;32.47;20.33;;;13.20;99.90;;;;;;5014176;28;20096;-69
2022/10/18 01:39:07;;;;;;;38.70;20.63;;;13.30;99.90;;;;;;5012432;28;20531;-69
2022/10/18 01:41:36;;;;;;;38.72;20.05;;;13.30;99.90;;;;;;5014250;28;20046;-70
2022/10/18 01:44:05;;;;;;;41.75;20.15;;;13.30;99.90;;;;;;5012814;28;20049;-70
2022/10/18 01:46:32;;;;;;;57.05;22.35;;;13.30;99.90;;;;;;5014146;28;20415;-70
2022/10/18 01:48:58;;;;;;;28.58;19.52;;;13.30;99.90;;;;;;5013911;28;20547;-69
2022/10/18 01:51:29;;;;;;;29.73;19.30;;;13.10;99.90;;;;;;5013972;28;20042;-69
2022/10/18 01:53:55;;;;;;;26.15;18.38;;;13.20;99.90;;;;;;5012432;28;20081;-69
2022/10/18 01:56:42;;;;;;;27.15;19.05;;;13.00;99.90;;;;;;5013888;28;20492;-70
2022/10/18 01:59:15;;;;;;;28.40;18.23;;;13.20;99.90;;;;;;5013768;28;20046;-69
2022/10/18 02:01:46;;;;;;;25.58;16.58;;;13.00;99.90;;;;;;5013739;28;20053;-69
2022/10/18 02:04:36;;;;;;;40.22;21.10;;;13.20;99.90;;;;;;5013559;28;20038;-69
2022/10/18 02:07:10;;;;;;;28.38;19.15;;;13.10;99.90;;;;;;4996133;28;20045;-69
2022/10/18 02:09:41;;;;;;;30.13;20.67;;;13.10;99.90;;;;;;5013300;28;20073;-69
2022/10/18 02:12:11;;;;;;;29.13;18.98;;;13.10;99.90;;;;;;5012258;28;20640;-70
2022/10/18 02:14:38;;;;;;;28.38;17.38;;;12.90;99.90;;;;;;5013433;28;20041;-69
2022/10/18 02:17:06;;;;;;;27.88;18.45;;;13.10;99.90;;;;;;5013405;28;20041;-69
2022/10/18 02:19:38;;;;;;;34.47;21.00;;;13.00;99.90;;;;;;5013444;28;20042;-70
2022/10/18 02:22:06;;;;;;;29.85;18.77;;;13.00;99.90;;;;;;5018460;28;20065;-70
2022/10/18 02:24:38;;;;;;;25.63;16.55;;;13.00;99.90;;;;;;5024750;28;20095;-69
2022/10/18 02:27:04;;;;;;;42.80;23.30;;;13.00;99.90;;;;;;5033128;28;20112;-69
2022/10/18 02:29:30;;;;;;;30.08;19.38;;;13.00;99.90;;;;;;5033151;28;20132;-69
2022/10/18 02:32:30;;;;;;;42.08;21.85;;;13.10;99.90;;;;;;5032479;28;20041;-69
2022/10/18 02:35:17;;;;;;;37.38;22.27;;;13.10;99.90;;;;;;4993760;28;20061;-69
2022/10/18 02:37:45;;;;;;;39.15;22.27;;;13.20;99.90;;;;;;5032946;28;20076;-70
2022/10/18 02:40:11;;;;;;;43.75;22.65;;;13.10;99.90;;;;;;5032728;28;20073;-69
2022/10/18 02:42:42;;;;;;;46.78;24.80;;;13.20;99.90;;;;;;5032432;28;20068;-69
2022/10/18 02:45:08;;;;;;;57.13;25.83;;;13.30;99.90;;;;;;5032931;28;20457;-69
2022/10/18 02:47:34;;;;;;;58.88;29.35;;;13.20;99.90;;;;;;5032915;28;20068;-69
2022/10/18 02:49:59;;;;;;;56.83;31.02;;;13.20;99.90;;;;;;5032747;28;20041;-69
2022/10/18 02:52:25;;;;;;;53.67;28.13;;;13.30;99.90;;;;;;5031176;28;20040;-69
2022/10/18 02:54:50;;;;;;;50.75;28.67;;;13.40;99.90;;;;;;5024289;28;20517;-70
2022/10/18 02:57:16;;;;;;;99.70;37.15;;;13.30;99.90;;;;;;5032778;28;20041;-70
2022/10/18 02:59:41;;;;;;;50.47;27.08;;;13.30;99.90;;;;;;5032344;28;20487;-69
2022/10/18 03:02:07;;;;;;;57.97;28.88;;;13.50;99.90;;;;;;5032454;28;20103;-69
2022/10/18 03:04:32;;;;;;;58.67;29.17;;;13.30;99.90;;;;;;5032224;28;20120;-70
2022/10/18 03:06:58;;;;;;;60.13;30.20;;;13.30;99.90;;;;;;5032276;28;20141;-70
2022/10/18 03:09:23;;;;;;;47.35;27.63;;;13.50;99.90;;;;;;5031056;28;20053;-70
2022/10/18 03:11:49;;;;;;;56.33;28.85;;;13.40;99.90;;;;;;5031089;28;20045;-70
2022/10/18 03:14:14;;;;;;;44.72;25.00;;;13.40;99.90;;;;;;5032125;28;20050;-71
2022/10/18 03:16:40;;;;;;;46.47;25.33;;;13.50;99.90;;;;;;5032241;28;20473;-70
2022/10/18 03:19:05;;;;;;;51.10;27.38;;;13.40;99.90;;;;;;5032137;28;20084;-71
2022/10/18 03:21:31;;;;;;;54.55;27.33;;;13.40;99.90;;;;;;5031375;28;20125;-71
2022/10/18 03:23:58;;;;;;;69.25;30.63;;;13.40;99.90;;;;;;5032054;28;20142;-71
2022/10/18 03:26:24;;;;;;;64.70;28.40;;;13.50;99.90;;;;;;5030762;28;20038;-70
2022/10/18 03:28:50;;;;;;;43.42;26.75;;;13.50;99.90;;;;;;5031446;28;20084;-70
2022/10/18 03:31:15;;;;;;;47.28;25.58;;;13.40;99.90;;;;;;5023279;28;20065;-70
2022/10/18 03:33:41;;;;;;;64.35;27.20;;;13.50;99.90;;;;;;5031788;28;20041;-70
2022/10/18 03:36:07;;;;;;;54.60;28.60;;;13.50;99.90;;;;;;5031994;28;20053;-70
2022/10/18 03:38:32;;;;;;;57.58;26.95;;;13.50;99.90;;;;;;5031869;28;20045;-70
2022/10/18 03:40:58;;;;;;;51.28;27.50;;;13.50;99.90;;;;;;5031664;28;20037;-71
2022/10/18 03:43:23;;;;;;;41.72;25.50;;;13.40;99.90;;;;;;5030086;28;20037;-71
2022/10/18 03:45:49;;;;;;;70.10;30.83;;;13.40;99.90;;;;;;5032047;28;20045;-71
2022/10/18 03:48:15;;;;;;;53.78;29.20;;;13.50;99.90;;;;;;5014286;28;20072;-70
2022/10/18 03:50:41;;;;;;;39.95;24.63;;;13.40;99.90;;;;;;5031812;28;20044;-70
2022/10/18 03:53:07;;;;;;;47.53;26.02;;;13.50;99.90;;;;;;5031334;28;20156;-70
2022/10/18 03:55:32;;;;;;;42.45;25.05;;;13.50;99.90;;;;;;5031632;28;20504;-70
2022/10/18 03:57:58;;;;;;;57.97;29.27;;;13.50;99.90;;;;;;5031835;28;20521;-70
2022/10/18 04:00:24;;;;;;;37.03;23.90;;;13.40;99.90;;;;;;5031651;28;20046;-70
2022/10/18 04:02:50;;;;;;;41.55;24.42;;;13.40;99.90;;;;;;5031230;28;20058;-70
2022/10/18 04:05:15;;;;;;;54.15;25.63;;;13.40;99.90;;;;;;5031718;28;20049;-70
2022/10/18 04:07:41;;;;;;;46.00;25.25;;;13.40;99.90;;;;;;5031556;28;20060;-70
2022/10/18 04:10:07;;;;;;;43.13;24.48;;;13.50;99.90;;;;;;5031473;28;20045;-71
2022/10/18 04:12:32;;;;;;;36.22;20.42;;;13.50;99.90;;;;;;5030142;28;20033;-70
2022/10/18 04:14:58;;;;;;;51.78;23.90;;;13.50;99.90;;;;;;5031697;28;20073;-70
2022/10/18 04:17:23;;;;;;;42.67;21.58;;;13.40;99.90;;;;;;5031559;28;20052;-70
2022/10/18 04:19:49;;;;;;;36.03;21.38;;;13.40;99.90;;;;;;5031602;28;20046;-70
2022/10/18 04:22:14;;;;;;;41.80;22.27;;;13.20;99.90;;;;;;5031061;28;20037;-70
2022/10/18 04:24:40;;;;;;;40.90;21.80;;;13.30;99.90;;;;;;5031223;28;20037;-71
2022/10/18 04:27:06;;;;;;;40.85;21.00;;;13.30;99.90;;;;;;5031305;28;20514;-70
2022/10/18 04:29:32;;;;;;;33.30;20.27;;;13.30;99.90;;;;;;5031587;28;20041;-70
2022/10/18 04:31:58;;;;;;;39.28;20.35;;;13.30;99.90;;;;;;5031948;28;20049;-71
2022/10/18 04:34:23;;;;;;;38.03;20.75;;;13.30;99.90;;;;;;5035048;28;20037;-69
2022/10/18 04:36:49;;;;;;;37.00;20.77;;;13.20;99.90;;;;;;5035239;28;20135;-71
2022/10/18 04:39:15;;;;;;;34.15;19.25;;;13.10;99.90;;;;;;5034950;28;20041;-70
2022/10/18 04:41:40;;;;;;;35.20;19.77;;;13.30;99.90;;;;;;5035155;28;20026;-70
2022/10/18 04:44:07;;;;;;;32.47;19.52;;;13.20;99.90;;;;;;5034663;28;20040;-70
2022/10/18 04:46:32;;;;;;;39.33;20.50;;;13.20;99.90;;;;;;5034939;28;20037;-70
2022/10/18 04:49:00;;;;;;;40.95;20.67;;;13.20;99.90;;;;;;5035126;28;20088;-70
2022/10/18 04:51:28;;;;;;;36.47;19.67;;;13.00;99.90;;;;;;5033774;28;20048;-70
2022/10/18 04:53:54;;;;;;;31.63;19.15;;;13.10;99.90;;;;;;5022790;28;20038;-71
2022/10/18 04:56:20;;;;;;;30.50;18.73;;;13.10;99.90;;;;;;4995630;28;20389;-70
2022/10/18 04:58:45;;;;;;;30.42;18.23;;;13.10;99.90;;;;;;4994086;28;20044;-70
2022/10/18 05:01:11;;;;;;;32.90;18.98;;;13.00;99.90;;;;;;4995389;28;20034;-70
2022/10/18 05:03:37;;;;;;;33.13;19.67;;;13.10;99.90;;;;;;4995011;28;20045;-70
2022/10/18 05:06:03;;;;;;;42.30;21.17;;;13.00;99.90;;;;;;4995411;28;20042;-70
2022/10/18 05:08:29;;;;;;;36.78;20.88;;;13.00;99.90;;;;;;4995212;28;20515;-70
2022/10/18 05:10:55;;;;;;;26.83;17.08;;;13.20;99.90;;;;;;4995490;28;20046;-71
2022/10/18 05:13:20;;;;;;;33.17;20.13;;;13.20;99.90;;;;;;4994815;28;20592;-71
2022/10/18 05:15:46;;;;;;;32.95;19.23;;;13.10;99.90;;;;;;4995164;28;20129;-70
2022/10/18 05:18:12;;;;;;;35.05;19.75;;;13.10;99.90;;;;;;4995125;28;20042;-70
2022/10/18 05:20:37;;;;;;;38.58;20.67;;;13.00;99.90;;;;;;4994912;28;20186;-70
2022/10/18 05:23:03;;;;;;;41.83;21.45;;;12.90;99.90;;;;;;4994613;28;20493;-70
2022/10/18 05:25:28;;;;;;;34.97;18.88;;;13.00;99.90;;;;;;4995316;28;20516;-70
2022/10/18 05:27:54;;;;;;;41.10;20.65;;;13.00;99.90;;;;;;4995071;28;20471;-69
2022/10/18 05:30:20;;;;;;;33.78;19.40;;;13.10;99.90;;;;;;4994947;28;20492;-70
2022/10/18 05:32:46;;;;;;;30.65;17.88;;;13.00;99.90;;;;;;4994465;28;20440;-70
2022/10/18 05:35:11;;;;;;;38.33;18.45;;;13.00;99.90;;;;;;4994814;28;20034;-70
2022/10/18 05:37:37;;;;;;;30.85;18.25;;;13.00;99.90;;;;;;4994693;28;20113;-70
2022/10/18 05:40:03;;;;;;;33.97;19.08;;;13.10;99.90;;;;;;4994490;28;20070;-69
2022/10/18 05:42:28;;;;;;;34.30;19.13;;;13.00;99.90;;;;;;4994365;28;20077;-70
2022/10/18 05:44:54;;;;;;;32.00;18.70;;;13.00;99.90;;;;;;4993972;28;20065;-70
2022/10/18 05:47:19;;;;;;;36.45;18.15;;;12.90;99.90;;;;;;4994603;28;20038;-70
2022/10/18 05:49:46;;;;;;;31.60;18.10;;;13.00;99.90;;;;;;4994433;28;20049;-70
2022/10/18 05:52:12;;;;;;;59.08;22.40;;;12.90;99.90;;;;;;4994289;28;20088;-70
2022/10/18 05:54:37;;;;;;;39.25;19.95;;;12.90;99.90;;;;;;4994348;28;20046;-69
2022/10/18 05:57:03;;;;;;;32.67;18.48;;;12.80;99.90;;;;;;4994226;28;20120;-70
2022/10/18 05:59:28;;;;;;;31.70;18.38;;;12.80;99.90;;;;;;4994235;28;20034;-70
2022/10/18 06:01:54;;;;;;;31.48;17.40;;;12.80;99.90;;;;;;4994243;28;20035;-69
2022/10/18 06:04:19;;;;;;;32.72;17.75;;;12.80;99.90;;;;;;4993819;28;20042;-70
2022/10/18 06:06:45;;;;;;;41.85;19.45;;;12.80;99.90;;;;;;4994018;28;20497;-70
2022/10/18 06:09:11;;;;;;;26.20;15.82;;;12.80;99.90;;;;;;4993995;28;20092;-70
2022/10/18 06:11:36;;;;;;;37.63;18.50;;;12.90;99.90;;;;;;4994069;28;20112;-70
2022/10/18 06:14:03;;;;;;;29.95;17.02;;;12.80;99.90;;;;;;4993732;28;20538;-70
2022/10/18 06:16:29;;;;;;;30.98;16.30;;;12.90;99.90;;;;;;4994335;28;20061;-70
2022/10/18 06:18:56;;;;;;;22.42;15.40;;;12.80;99.90;;;;;;4993859;28;20046;-69
2022/10/18 06:21:23;;;;;;;27.38;16.08;;;12.70;99.90;;;;;;4993611;28;20044;-70
2022/10/18 06:23:55;;;;;;;34.55;16.98;;;12.70;99.90;;;;;;4992354;28;20560;-70
2022/10/18 06:26:21;;;;;;;27.73;14.68;;;12.80;99.90;;;;;;4993860;28;20046;-70
2022/10/18 06:28:47;;;;;;;21.63;14.48;;;12.60;99.90;;;;;;4992506;28;20092;-71
2022/10/18 06:31:14;;;;;;;28.25;15.50;;;12.60;99.90;;;;;;4993775;28;20038;-71
2022/10/18 06:33:40;;;;;;;27.50;14.75;;;12.70;99.90;;;;;;4991986;28;20070;-70
2022/10/18 06:36:09;;;;;;;42.17;16.00;;;12.60;99.90;;;;;;4993522;28;20444;-70
2022/10/18 06:38:35;;;;;;;26.83;12.70;;;12.50;99.90;;;;;;4993577;28;20035;-70
2022/10/18 06:41:01;;;;;;;27.73;14.52;;;12.60;99.90;;;;;;4992130;28;20042;-71
2022/10/18 06:43:27;;;;;;;20.15;13.75;;;12.50;99.90;;;;;;4991782;28;20042;-70
2022/10/18 06:45:53;;;;;;;17.88;12.40;;;12.60;99.90;;;;;;4993456;28;20034;-70
2022/10/18 06:48:19;;;;;;;31.85;13.68;;;12.60;99.90;;;;;;4993363;28;20039;-70
2022/10/18 06:50:51;;;;;;;25.45;13.00;;;12.50;99.90;;;;;;4993230;28;20042;-70
2022/10/18 06:53:17;;;;;;;18.05;11.98;;;12.50;99.90;;;;;;4993122;28;20065;-70
2022/10/18 06:55:42;;;;;;;19.85;12.65;;;12.40;99.90;;;;;;4992238;28;20519;-70
2022/10/18 06:58:08;;;;;;;28.88;13.80;;;12.50;99.90;;;;;;4993200;28;20097;-70
2022/10/18 07:00:34;;;;;;;33.10;13.10;;;12.50;99.90;;;;;;4993066;28;20042;-71
2022/10/18 07:03:00;;;;;;;38.05;14.52;;;12.50;99.90;;;;;;4992449;28;20042;-70
2022/10/18 07:05:25;;;;;;;18.83;11.48;;;12.40;99.90;;;;;;4992996;28;20591;-71
2022/10/18 07:07:51;;;;;;;25.40;13.70;;;12.50;99.90;;;;;;4993172;28;20114;-70
2022/10/18 07:10:16;;;;;;;21.23;12.02;;;12.40;99.90;;;;;;4993069;28;20555;-70
2022/10/18 07:12:42;;;;;;;21.23;12.65;;;12.40;99.90;;;;;;4992627;28;20050;-71
2022/10/18 07:15:08;;;;;;;23.63;12.70;;;12.60;99.90;;;;;;4992924;28;20126;-70
2022/10/18 07:17:33;;;;;;;22.70;11.63;;;12.40;99.90;;;;;;4992756;28;20537;-70
2022/10/18 07:19:59;;;;;;;21.92;10.82;;;12.40;99.90;;;;;;4992605;28;20101;-71
2022/10/18 07:22:24;;;;;;;19.77;11.35;;;12.50;99.90;;;;;;4992565;28;20104;-71
2022/10/18 07:24:50;;;;;;;15.43;9.60;;;12.40;99.90;;;;;;4993185;28;20515;-71
2022/10/18 07:27:15;;;;;;;17.90;10.48;;;12.40;99.90;;;;;;4993432;28;20039;-70
2022/10/18 07:29:41;;;;;;;28.00;10.98;;;12.30;99.90;;;;;;4993133;28;20054;-70
2022/10/18 07:32:06;;;;;;;15.77;10.02;;;12.50;99.90;;;;;;4992618;28;20038;-71
2022/10/18 07:34:32;;;;;;;24.65;12.55;;;12.40;99.90;;;;;;4992222;28;20050;-70
2022/10/18 07:36:57;;;;;;;21.05;11.65;;;12.50;99.90;;;;;;4992665;28;20050;-70
2022/10/18 07:39:23;;;;;;;16.98;9.95;;;12.50;99.90;;;;;;4992686;28;20057;-71
2022/10/18 07:41:48;;;;;;;15.05;9.85;;;12.50;99.90;;;;;;4992512;28;20038;-70
2022/10/18 07:44:14;;;;;;;18.50;11.18;;;12.60;99.90;;;;;;4992188;28;20042;-70
2022/10/18 07:46:39;;;;;;;19.50;10.15;;;12.60;99.90;;;;;;4992494;28;20038;-71
2022/10/18 07:49:05;;;;;;;19.90;11.10;;;12.60;99.90;;;;;;4992375;28;20046;-70
2022/10/18 07:51:31;;;;;;;19.92;11.45;;;12.60;99.90;;;;;;4992538;28;20129;-71
2022/10/18 07:53:58;;;;;;;16.13;10.93;;;12.70;99.90;;;;;;4992165;28;20055;-70
2022/10/18 07:56:24;;;;;;;16.52;10.23;;;12.80;99.90;;;;;;4992526;28;20046;-70
2022/10/18 07:58:51;;;;;;;18.05;12.05;;;12.70;99.90;;;;;;4992256;28;20038;-70
2022/10/18 08:01:18;;;;;;;14.45;10.10;;;12.60;99.90;;;;;;5002410;28;20048;-70
2022/10/18 08:03:44;;;;;;;18.02;11.38;;;12.60;99.90;;;;;;5019242;28;20109;-70
2022/10/18 08:06:21;;;;;;;16.05;11.25;;;12.70;99.90;;;;;;5017075;28;20459;-70
2022/10/18 08:08:47;;;;;;;23.25;13.15;;;12.80;99.90;;;;;;4978073;28;20111;-69
2022/10/18 08:11:18;;;;;;;19.30;11.98;;;12.90;99.90;;;;;;4996151;28;20042;-69
2022/10/18 08:13:44;;;;;;;19.83;11.98;;;12.80;99.90;;;;;;4995780;28;20049;-70
2022/10/18 08:16:12;;;;;;;21.25;12.20;;;13.00;99.90;;;;;;4996055;28;20046;-69
2022/10/18 08:18:38;;;;;;;23.38;12.35;;;13.00;99.90;;;;;;4996118;28;20045;-70
2022/10/18 08:21:06;;;;;;;22.48;11.70;;;13.00;99.90;;;;;;4996593;28;20038;-69
2022/10/18 08:23:32;;;;;;;19.50;11.57;;;13.20;99.90;;;;;;5021258;28;20030;-69
2022/10/18 08:26:06;;;;;;;18.85;11.18;;;13.20;99.90;;;;;;5015734;28;20049;-69
2022/10/18 08:28:32;;;;;;;15.38;10.43;;;13.40;99.90;;;;;;5015489;28;20135;-69
2022/10/18 08:31:02;;;;;;;18.40;10.18;;;13.20;99.90;;;;;;5016019;28;20086;-70
2022/10/18 08:33:28;;;;;;;15.95;11.65;;;13.50;99.90;;;;;;5015344;28;20045;-69
2022/10/18 08:35:55;;;;;;;15.65;10.20;;;13.40;99.90;;;;;;5014250;28;20092;-69
2022/10/18 08:38:21;;;;;;;20.02;10.80;;;13.60;99.90;;;;;;5014066;28;20384;-70
2022/10/18 08:40:46;;;;;;;13.30;9.57;;;13.80;99.90;;;;;;5015215;28;20065;-69
2022/10/18 08:43:18;;;;;;;16.95;9.52;;;13.90;99.90;;;;;;5014759;28;20038;-70
2022/10/18 08:45:44;;;;;;;19.08;10.88;;;13.80;99.90;;;;;;5014994;28;20396;-70
2022/10/18 08:48:20;;;;;;;18.58;10.80;;;13.90;99.90;;;;;;5015365;28;20034;-69
2022/10/18 08:50:47;;;;;;;20.92;10.88;;;14.10;99.90;;;;;;5015278;28;20037;-69
2022/10/18 08:53:27;;;;;;;18.60;11.30;;;14.10;99.90;;;;;;5019214;28;20073;-69
2022/10/18 08:56:20;;;;;;;19.35;10.85;;;14.10;99.90;;;;;;5034763;28;20033;-70
2022/10/18 08:58:45;;;;;;;15.90;11.55;;;14.00;99.90;;;;;;5033530;28;20120;-69
2022/10/18 09:01:23;;;;;;;24.20;12.82;;;14.00;99.90;;;;;;5034844;28;20518;-70
2022/10/18 09:04:19;;;;;;;21.50;13.60;;;14.00;99.90;;;;;;5034270;28;20048;-69
2022/10/18 09:06:55;;;;;;;22.33;13.88;;;13.80;99.90;;;;;;5034813;28;20099;-69
2022/10/18 09:09:31;;;;;;;16.77;12.77;;;14.00;99.90;;;;;;5034821;28;20604;-71
2022/10/18 09:12:30;;;;;;;19.88;12.90;;;13.90;99.90;;;;;;5033231;28;20099;-71
2022/10/18 09:15:12;;;;;;;15.43;10.52;;;13.80;99.90;;;;;;5034544;28;20124;-70
2022/10/18 09:17:55;;;;;;;16.85;9.88;;;13.90;99.90;;;;;;5034406;28;20479;-69
2022/10/18 09:20:20;;;;;;;14.88;9.68;;;13.90;99.90;;;;;;5033346;28;20052;-69
2022/10/18 09:23:06;;;;;;;13.68;7.60;;;13.90;99.90;;;;;;5033866;28;20045;-69
2022/10/18 09:25:42;;;;;;;16.88;6.63;;;14.00;99.90;;;;;;5034402;28;20038;-69
2022/10/18 09:28:39;;;;;;;16.30;7.20;;;14.30;99.90;;;;;;5034291;28;20037;-70
2022/10/18 09:31:33;;;;;;;15.50;6.25;;;14.00;99.90;;;;;;5025180;28;20038;-70
2022/10/18 09:34:07;;;;;;;13.15;6.38;;;14.20;99.90;;;;;;5021093;28;20407;-69
2022/10/18 09:36:36;;;;;;;16.30;5.75;;;14.20;99.90;;;;;;5022286;28;20073;-70
2022/10/18 09:39:09;;;;;;;17.38;5.15;;;14.20;99.90;;;;;;5022130;28;20045;-69
2022/10/18 09:41:48;;;;;;;12.80;4.75;;;14.10;99.90;;;;;;5022792;28;20144;-69
2022/10/18 09:44:17;;;;;;;13.25;4.82;;;14.00;99.90;;;;;;5016378;28;20034;-69
2022/10/18 09:46:48;;;;;;;14.43;3.63;;;14.10;99.90;;;;;;5013914;28;20496;-69
2022/10/18 09:49:24;;;;;;;14.13;4.25;;;14.20;99.90;;;;;;5014049;28;20041;-69
2022/10/18 09:51:52;;;;;;;14.02;3.42;;;14.30;99.90;;;;;;5012918;28;20064;-69
2022/10/18 09:54:54;;;;;;;13.52;4.05;;;14.40;99.90;;;;;;5013617;28;20045;-69
2022/10/18 09:57:34;;;;;;;17.35;3.55;;;14.20;99.90;;;;;;4971061;28;20050;-69
2022/10/18 10:00:02;;;;;;;11.70;3.20;;;14.50;99.90;;;;;;5013791;28;20069;-68
2022/10/18 10:02:27;;;;;;;17.08;3.33;;;14.30;99.90;;;;;;5013133;28;20038;-70
2022/10/18 10:04:54;;;;;;;14.27;2.80;;;14.30;99.90;;;;;;5016222;28;20064;-69
2022/10/18 10:07:32;;;;;;;13.60;2.60;;;14.40;99.90;;;;;;5020025;28;20073;-69
2022/10/18 10:10:05;;;;;;;14.00;2.55;;;14.60;99.90;;;;;;5007248;28;20381;-69
2022/10/18 10:12:32;;;;;;;;;;;14.40;99.90;;;;;;5012138;28;20045;-69
2022/10/18 10:15:14;;;;;;;13.50;3.38;;;14.50;99.90;;;;;;5019373;28;20387;-69
2022/10/18 10:17:41;;;;;;;14.27;2.72;;;14.60;99.90;;;;;;5019434;28;20034;-69
2022/10/18 10:20:18;;;;;;;11.40;3.33;;;14.40;99.90;;;;;;5021924;28;20174;-69
2022/10/18 10:22:45;;;;;;;12.63;3.90;;;14.40;99.90;;;;;;5018866;28;20040;-69
2022/10/18 10:25:37;;;;;;;14.93;3.05;;;14.60;99.90;;;;;;5021816;28;20034;-69
2022/10/18 10:28:06;;;;;;;12.35;2.88;;;14.60;99.90;;;;;;5012828;28;20084;-69
2022/10/18 10:30:36;;;;;;;11.32;2.88;;;14.60;99.90;;;;;;5013038;28;20442;-68
2022/10/18 10:33:02;;;;;;;11.82;2.30;;;14.60;99.90;;;;;;5012609;28;20116;-68
2022/10/18 10:35:28;;;;;;;11.88;3.00;;;14.50;99.90;;;;;;5011799;28;20121;-69
2022/10/18 10:37:54;;;;;;;16.25;3.00;;;14.70;99.90;;;;;;5013029;28;20100;-68
2022/10/18 10:40:27;;;;;;;15.55;3.08;;;14.70;99.90;;;;;;5015924;28;20411;-68
2022/10/18 10:43:14;;;;;;;10.00;2.15;;;14.60;99.90;;;;;;5018938;28;20069;-68
2022/10/18 10:46:05;;;;;;;14.50;2.75;;;14.70;99.90;;;;;;5013423;28;20117;-68
2022/10/18 10:48:38;;;;;;;14.77;3.45;;;14.70;99.90;;;;;;5013280;28;20044;-70
2022/10/18 10:51:09;;;;;;;11.50;2.83;;;14.80;99.90;;;;;;5013585;28;20100;-69
2022/10/18 10:53:40;;;;;;;9.27;1.65;;;14.70;99.90;;;;;;5018947;28;20068;-70
2022/10/18 10:56:15;;;;;;;11.68;2.20;;;14.70;99.90;;;;;;5022331;28;20051;-70
2022/10/18 10:58:41;;;;;;;15.00;2.80;;;14.80;99.90;;;;;;5012886;28;20099;-70
2022/10/18 11:01:22;;;;;;;12.75;2.30;;;14.70;99.90;;;;;;5012781;28;20491;-70
2022/10/18 11:03:54;;;;;;;12.30;2.30;;;14.90;99.90;;;;;;5012157;28;20041;-71
2022/10/18 11:06:48;;;;;;;13.05;2.92;;;14.90;99.90;;;;;;5012410;28;20515;-69
2022/10/18 11:09:26;;;;;;;12.43;1.98;;;14.90;99.90;;;;;;5008849;28;20133;-68
2022/10/18 11:12:04;;;;;;;9.38;1.77;;;15.00;99.90;;;;;;5012664;28;20057;-69
2022/10/18 11:14:35;;;;;;;11.43;2.15;;;15.10;99.90;;;;;;5011272;28;20029;-68
2022/10/18 11:17:20;;;;;;;10.13;2.20;;;15.20;99.90;;;;;;5012199;28;20562;-69
2022/10/18 11:20:13;;;;;;;11.48;2.17;;;15.30;99.90;;;;;;5011214;28;20065;-68
2022/10/18 11:22:59;;;;;;;8.73;1.75;;;15.00;99.90;;;;;;5008936;28;20109;-68
2022/10/18 11:25:38;;;;;;;8.27;1.73;;;15.00;99.90;;;;;;5012165;28;20040;-68
2022/10/18 11:28:28;;;;;;;11.52;2.42;;;15.00;99.90;;;;;;5012615;28;20057;-68
2022/10/18 11:31:08;;;;;;;9.23;1.98;;;15.10;99.90;;;;;;5012320;28;20072;-69
2022/10/18 11:33:54;;;;;;;12.77;2.03;;;15.10;99.90;;;;;;5011842;28;20042;-69
2022/10/18 11:36:46;;;;;;;12.82;1.73;;;15.20;99.90;;;;;;5012727;28;20392;-68
2022/10/18 11:39:23;;;;;;;8.15;1.85;;;15.50;99.90;;;;;;5012778;28;20045;-68
2022/10/18 11:42:10;;;;;;;14.32;2.28;;;15.30;99.90;;;;;;5017743;28;20368;-68
2022/10/18 11:44:39;;;;;;;12.50;2.25;;;15.30;99.90;;;;;;5011623;28;20598;-69
2022/10/18 11:47:10;;;;;;;10.80;1.88;;;15.20;99.90;;;;;;5014859;28;20045;-69
2022/10/18 11:50:00;;;;;;;11.63;1.92;;;15.20;99.90;;;;;;5012043;28;20052;-71
2022/10/18 11:52:43;;;;;;;8.25;1.80;;;15.20;99.90;;;;;;5011399;28;20044;-71
2022/10/18 11:55:28;;;;;;;11.18;2.47;;;15.30;99.90;;;;;;5012004;28;20046;-71
2022/10/18 11:58:21;;;;;;;13.55;2.60;;;15.30;99.90;;;;;;5010925;28;20071;-71
2022/10/18 12:01:24;;;;;;;14.73;2.35;;;15.50;99.90;;;;;;5010657;28;20124;-72
2022/10/18 12:04:01;;;;;;;11.18;1.48;;;15.70;99.90;;;;;;4999148;28;20042;-70
2022/10/18 12:06:32;;;;;;;16.85;2.40;;;15.90;99.90;;;;;;5015758;28;20372;-71
2022/10/18 12:09:01;;;;;;;7.68;2.28;;;16.10;99.90;;;;;;5012786;28;20088;-71
2022/10/18 12:11:32;;;;;;;17.58;3.50;;;16.10;99.90;;;;;;5011826;28;20041;-70
2022/10/18 12:14:06;;;;;;;11.30;2.65;;;16.10;99.90;;;;;;5011805;28;20046;-70
2022/10/18 12:16:37;;;;;;;11.07;1.88;;;16.00;99.90;;;;;;5014231;28;20491;-69
2022/10/18 12:19:11;;;;;;;9.57;2.05;;;16.10;99.90;;;;;;5013383;28;20042;-69
2022/10/18 12:21:37;;;;;;;12.13;1.83;;;16.10;99.90;;;;;;5005790;28;20088;-70
2022/10/18 12:24:09;;;;;;;11.52;2.10;;;16.00;99.90;;;;;;5011095;28;20406;-69
2022/10/18 12:26:36;;;;;;;6.97;1.98;;;15.80;99.90;;;;;;5011332;28;20399;-69
2022/10/18 12:29:07;;;;;;;13.73;2.30;;;15.70;99.90;;;;;;4991491;28;20038;-69
2022/10/18 12:32:20;;;;;;;6.13;1.80;;;15.60;99.90;;;;;;5016950;28;20065;-70
2022/10/18 12:34:53;;;;;;;7.53;1.75;;;15.40;99.90;;;;;;5009047;28;20057;-69
2022/10/18 12:37:27;;;;;;;14.48;2.83;;;15.40;99.90;;;;;;5011668;28;20037;-69
2022/10/18 12:39:59;;;;;;;7.72;2.25;;;15.30;99.90;;;;;;5010250;28;20076;-67
2022/10/18 12:42:29;;;;;;;7.47;1.92;;;15.40;99.90;;;;;;5010952;28;20034;-66
2022/10/18 12:45:05;;;;;;;6.22;1.67;;;15.50;99.90;;;;;;5011291;28;20499;-67
2022/10/18 12:47:31;;;;;;;9.57;1.95;;;15.60;99.90;;;;;;5012969;28;20041;-67